createdAt,value
2022-07-26T00:00:48.547Z,24.80
2022-07-26T00:03:15.131Z,24.90
2022-07-26T00:05:41.667Z,24.90
2022-07-26T00:08:08.196Z,24.80
2022-07-26T00:10:34.742Z,24.80
2022-07-26T00:13:01.272Z,24.80
2022-07-26T00:15:27.837Z,24.80
2022-07-26T00:17:54.354Z,24.80
2022-07-26T00:28:53.610Z,24.80
2022-07-26T00:31:20.194Z,24.80
2022-07-26T00:33:46.774Z,24.80
2022-07-26T00:36:13.302Z,24.80
2022-07-26T00:38:39.820Z,24.80
2022-07-26T00:41:06.351Z,24.80
2022-07-26T00:43:32.888Z,24.80
2022-07-26T00:45:59.925Z,24.80
2022-07-26T00:48:26.556Z,24.80
2022-07-26T00:50:53.106Z,24.80
2022-07-26T00:53:19.631Z,24.80
2022-07-26T00:55:46.139Z,24.80
2022-07-26T00:58:12.664Z,24.80
2022-07-26T01:00:39.200Z,24.80
2022-07-26T01:03:05.712Z,24.80
2022-07-26T01:05:32.251Z,24.80
2022-07-26T01:07:58.770Z,24.80
2022-07-26T01:10:25.318Z,24.80
2022-07-26T01:12:51.834Z,24.80
2022-07-26T01:15:18.362Z,24.80
2022-07-26T01:17:46.297Z,24.80
2022-07-26T01:20:12.810Z,24.80
2022-07-26T01:22:39.348Z,24.80
2022-07-26T01:25:05.858Z,24.80
2022-07-26T01:27:34.271Z,24.80
2022-07-26T01:30:00.910Z,24.80
2022-07-26T01:32:27.429Z,24.80
2022-07-26T01:34:53.938Z,24.80
2022-07-26T01:37:20.473Z,24.70
2022-07-26T01:39:46.999Z,24.80
2022-07-26T01:42:13.536Z,24.70
2022-07-26T01:44:40.051Z,24.70
2022-07-26T01:47:06.582Z,24.70
2022-07-26T01:49:33.106Z,24.70
2022-07-26T01:51:59.829Z,24.80
2022-07-26T01:54:26.381Z,24.70
2022-07-26T01:56:52.890Z,24.70
2022-07-26T01:59:19.401Z,24.70
2022-07-26T02:01:45.990Z,24.70
2022-07-26T02:04:12.686Z,24.80
2022-07-26T02:06:39.340Z,24.80
2022-07-26T02:09:07.514Z,24.80
2022-07-26T02:11:38.144Z,24.70
2022-07-26T02:14:04.995Z,24.70
2022-07-26T02:16:31.820Z,24.70
2022-07-26T02:18:58.347Z,24.70
2022-07-26T02:21:24.895Z,24.70
2022-07-26T02:23:51.434Z,24.70
2022-07-26T02:26:17.988Z,24.70
2022-07-26T02:28:44.501Z,24.70
2022-07-26T02:31:11.687Z,24.70
2022-07-26T02:33:41.898Z,24.70
2022-07-26T02:36:08.480Z,24.70
2022-07-26T02:38:35.008Z,24.70
2022-07-26T02:41:01.547Z,24.70
2022-07-26T02:43:28.053Z,24.70
2022-07-26T02:46:01.266Z,24.70
2022-07-26T02:48:28.954Z,24.70
2022-07-26T02:50:55.573Z,24.70
2022-07-26T02:53:22.104Z,24.70
2022-07-26T02:55:48.645Z,24.70
2022-07-26T02:58:15.176Z,24.70
2022-07-26T03:00:41.732Z,24.70
2022-07-26T03:03:08.323Z,24.70
2022-07-26T03:05:34.855Z,24.70
2022-07-26T03:08:01.375Z,24.70
2022-07-26T03:10:27.875Z,24.70
2022-07-26T03:12:54.402Z,24.70
2022-07-26T03:15:20.919Z,24.70
2022-07-26T03:17:47.463Z,24.70
2022-07-26T03:20:13.986Z,24.70
2022-07-26T03:22:40.489Z,24.70
2022-07-26T03:25:07.022Z,24.70
2022-07-26T03:27:33.541Z,24.70
2022-07-26T03:30:00.107Z,24.70
2022-07-26T03:32:26.679Z,24.70
2022-07-26T03:34:53.206Z,24.70
2022-07-26T03:37:19.752Z,24.70
2022-07-26T03:39:46.276Z,24.70
2022-07-26T03:42:12.811Z,24.70
2022-07-26T03:44:39.344Z,24.70
2022-07-26T03:47:05.862Z,24.70
2022-07-26T03:49:34.431Z,24.70
2022-07-26T03:52:00.953Z,24.70
2022-07-26T03:54:27.476Z,24.70
2022-07-26T03:56:54.008Z,24.70
2022-07-26T03:59:20.528Z,24.60
2022-07-26T04:01:47.077Z,24.70
2022-07-26T04:04:13.606Z,24.70
2022-07-26T04:06:40.357Z,24.60
2022-07-26T04:09:08.044Z,24.70
2022-07-26T04:11:34.689Z,24.60
2022-07-26T04:14:01.197Z,24.60
2022-07-26T04:16:27.776Z,24.60
2022-07-26T04:18:54.316Z,24.60
2022-07-26T04:21:20.839Z,24.60
2022-07-26T04:23:51.139Z,24.60
2022-07-26T04:26:18.194Z,24.60
2022-07-26T04:28:44.736Z,24.60
2022-07-26T04:31:11.347Z,24.60
2022-07-26T04:33:37.967Z,24.60
2022-07-26T04:36:04.467Z,24.50
2022-07-26T04:38:31.006Z,24.60
2022-07-26T04:41:04.619Z,24.50
2022-07-26T04:43:31.139Z,24.50
2022-07-26T04:45:58.512Z,24.50
2022-07-26T04:48:25.068Z,24.60
2022-07-26T04:50:51.582Z,24.50
2022-07-26T04:53:18.126Z,24.50
2022-07-26T04:55:44.665Z,24.50
2022-07-26T04:58:11.220Z,24.50
2022-07-26T05:01:02.760Z,24.50
2022-07-26T05:03:24.241Z,24.50
2022-07-26T05:05:50.759Z,24.50
2022-07-26T05:08:17.294Z,24.50
2022-07-26T05:10:45.090Z,24.50
2022-07-26T05:13:11.810Z,24.50
2022-07-26T05:15:38.334Z,24.50
2022-07-26T05:18:06.927Z,24.50
2022-07-26T05:20:33.809Z,24.50
2022-07-26T05:23:00.332Z,24.50
2022-07-26T05:25:26.868Z,24.60
2022-07-26T05:27:53.396Z,24.60
2022-07-26T05:30:19.917Z,24.50
2022-07-26T05:32:46.437Z,24.50
2022-07-26T05:35:12.965Z,24.60
2022-07-26T05:37:39.552Z,24.50
2022-07-26T05:40:06.092Z,24.50
2022-07-26T05:42:32.600Z,24.50
2022-07-26T05:44:59.139Z,24.50
2022-07-26T05:47:25.675Z,24.50
2022-07-26T05:49:52.210Z,24.50
2022-07-26T05:52:18.769Z,24.50
2022-07-26T05:54:45.312Z,24.50
2022-07-26T05:57:11.849Z,24.50
2022-07-26T05:59:38.385Z,24.50
2022-07-26T06:02:04.981Z,24.50
2022-07-26T06:04:31.611Z,24.50
2022-07-26T06:06:58.154Z,24.50
2022-07-26T06:09:24.695Z,24.50
2022-07-26T06:11:51.224Z,24.50
2022-07-26T06:14:17.779Z,24.50
2022-07-26T06:16:44.391Z,24.60
2022-07-26T06:19:10.945Z,24.60
2022-07-26T06:21:37.545Z,24.60
2022-07-26T06:24:04.080Z,24.60
2022-07-26T06:26:30.615Z,24.60
2022-07-26T06:28:57.130Z,24.50
2022-07-26T06:31:23.697Z,24.60
2022-07-26T06:33:50.239Z,24.60
2022-07-26T06:36:16.759Z,24.60
2022-07-26T06:38:43.287Z,24.60
2022-07-26T06:41:09.806Z,24.60
2022-07-26T06:43:36.327Z,24.60
2022-07-26T06:46:02.918Z,24.60
2022-07-26T06:48:29.600Z,24.60
2022-07-26T06:50:56.173Z,24.60
2022-07-26T06:53:22.692Z,24.60
2022-07-26T06:58:39.972Z,24.60
2022-07-26T07:01:06.574Z,24.60
2022-07-26T07:03:33.143Z,24.60
2022-07-26T07:05:59.687Z,24.60
2022-07-26T07:08:26.333Z,24.60
2022-07-26T07:10:52.864Z,24.60
2022-07-26T07:13:20.721Z,24.60
2022-07-26T07:15:47.267Z,24.60
2022-07-26T07:18:13.785Z,24.60
2022-07-26T07:20:40.340Z,24.60
2022-07-26T07:23:06.844Z,24.60
2022-07-26T07:25:33.390Z,24.60
2022-07-26T07:27:59.922Z,24.60
2022-07-26T07:30:28.074Z,24.60
2022-07-26T07:32:54.676Z,24.60
2022-07-26T07:35:21.237Z,24.60
2022-07-26T07:37:52.794Z,24.60
2022-07-26T07:40:20.666Z,24.60
2022-07-26T07:42:47.194Z,24.60
2022-07-26T07:45:13.720Z,24.60
2022-07-26T07:47:40.240Z,24.60
2022-07-26T07:50:06.794Z,24.70
2022-07-26T07:52:33.311Z,24.70
2022-07-26T07:55:21.794Z,24.70
2022-07-26T07:57:46.335Z,24.60
2022-07-26T08:00:12.894Z,24.70
2022-07-26T08:02:42.413Z,24.70
2022-07-26T08:05:14.076Z,24.60
2022-07-26T08:07:41.780Z,24.60
2022-07-26T08:10:08.328Z,24.70
2022-07-26T08:12:40.896Z,24.70
2022-07-26T08:15:08.398Z,24.60
2022-07-26T08:17:35.236Z,24.70
2022-07-26T08:20:06.345Z,24.70
2022-07-26T08:22:35.408Z,24.70
2022-07-26T08:25:01.958Z,24.70
2022-07-26T08:27:28.671Z,24.60
2022-07-26T08:29:55.179Z,24.60
2022-07-26T08:32:21.704Z,24.70
2022-07-26T08:34:48.223Z,24.70
2022-07-26T08:37:17.570Z,24.70
2022-07-26T08:39:44.596Z,24.70
2022-07-26T08:42:11.127Z,24.70
2022-07-26T08:44:37.647Z,24.70
2022-07-26T08:47:04.228Z,24.70
2022-07-26T08:49:30.847Z,24.70
2022-07-26T08:51:57.405Z,24.70
2022-07-26T08:54:23.919Z,24.70
2022-07-26T08:56:50.428Z,24.70
2022-07-26T08:59:20.772Z,24.70
2022-07-26T09:01:47.605Z,24.70
2022-07-26T09:04:29.931Z,24.70
2022-07-26T09:06:57.929Z,24.70
2022-07-26T09:09:24.434Z,24.70
2022-07-26T09:11:50.946Z,24.70
2022-07-26T09:14:17.452Z,24.70
2022-07-26T09:16:44.024Z,24.70
2022-07-26T09:19:10.959Z,24.70
2022-07-26T09:21:37.729Z,24.70
2022-07-26T09:24:04.296Z,24.70
2022-07-26T09:26:30.834Z,24.80
2022-07-26T09:28:57.355Z,24.70
2022-07-26T09:31:23.998Z,24.70
2022-07-26T09:33:51.314Z,24.70
2022-07-26T09:36:17.853Z,24.70
2022-07-26T09:38:46.719Z,24.70
2022-07-26T09:41:13.253Z,24.70
2022-07-26T09:43:39.785Z,24.70
2022-07-26T09:46:06.416Z,24.70
2022-07-26T09:48:52.660Z,24.70
2022-07-26T09:51:19.505Z,24.70
2022-07-26T09:53:51.968Z,24.70
2022-07-26T09:56:18.494Z,24.70
2022-07-26T09:58:44.998Z,24.70
2022-07-26T10:01:11.520Z,24.70
2022-07-26T10:03:38.060Z,24.70
2022-07-26T10:06:06.778Z,24.70
2022-07-26T10:08:33.327Z,24.70
2022-07-26T10:10:59.849Z,24.70
2022-07-26T10:13:26.359Z,24.70
2022-07-26T10:15:52.895Z,24.70
2022-07-26T10:18:19.437Z,24.70
2022-07-26T10:20:46.995Z,24.70
2022-07-26T10:23:13.513Z,24.70
2022-07-26T10:25:40.050Z,24.70
2022-07-26T10:28:11.944Z,24.70
2022-07-26T10:30:38.705Z,24.70
2022-07-26T10:33:05.233Z,24.70
2022-07-26T10:35:31.767Z,24.70
2022-07-26T10:37:58.305Z,24.70
2022-07-26T10:40:24.819Z,24.70
2022-07-26T10:42:51.357Z,24.70
2022-07-26T10:45:17.883Z,24.70
2022-07-26T10:47:44.420Z,24.70
2022-07-26T10:50:11.039Z,24.70
2022-07-26T10:52:37.619Z,24.70
2022-07-26T10:55:04.126Z,24.70
2022-07-26T10:57:32.067Z,24.70
2022-07-26T10:59:58.582Z,24.70
2022-07-26T11:02:25.122Z,24.70
2022-07-26T11:04:51.657Z,24.70
2022-07-26T11:07:18.188Z,24.70
2022-07-26T11:09:44.694Z,24.80
2022-07-26T11:12:11.199Z,24.70
2022-07-26T11:14:37.716Z,24.70
2022-07-26T11:17:04.231Z,24.70
2022-07-26T11:19:30.745Z,24.70
2022-07-26T11:21:57.256Z,24.70
2022-07-26T11:24:23.769Z,24.70
2022-07-26T11:26:50.297Z,24.70
2022-07-26T11:29:17.798Z,24.70
2022-07-26T11:31:55.510Z,24.70
2022-07-26T11:34:34.856Z,24.70
2022-07-26T11:37:01.370Z,24.70
2022-07-26T11:39:27.901Z,24.80
2022-07-26T11:41:54.432Z,24.70
2022-07-26T11:44:20.951Z,24.70
2022-07-26T11:46:47.616Z,24.80
2022-07-26T11:49:14.346Z,24.80
2022-07-26T11:51:40.947Z,24.80
2022-07-26T11:54:07.693Z,24.80
2022-07-26T11:56:34.449Z,24.70
2022-07-26T11:59:00.983Z,24.80
2022-07-26T12:01:27.483Z,24.80
2022-07-26T12:03:54.053Z,24.80
2022-07-26T12:06:20.591Z,24.80
2022-07-26T12:08:47.610Z,24.80
2022-07-26T12:11:18.086Z,24.80
2022-07-26T12:13:55.142Z,24.80
2022-07-26T12:16:22.711Z,24.80
2022-07-26T12:18:53.032Z,24.80
2022-07-26T12:21:19.559Z,24.80
2022-07-26T12:23:46.080Z,24.80
2022-07-26T12:26:12.608Z,24.80
2022-07-26T12:28:39.145Z,24.80
2022-07-26T12:31:05.728Z,24.80
2022-07-26T12:33:32.267Z,24.80
2022-07-26T12:35:58.786Z,24.80
2022-07-26T12:38:25.329Z,24.80
2022-07-26T12:40:51.861Z,24.80
2022-07-26T12:43:18.392Z,24.80
2022-07-26T12:45:44.960Z,24.80
2022-07-26T12:48:11.529Z,24.80
2022-07-26T12:50:38.058Z,24.80
2022-07-26T12:53:04.597Z,24.80
2022-07-26T12:55:31.741Z,24.80
2022-07-26T12:57:58.347Z,24.80
2022-07-26T13:00:24.944Z,24.80
2022-07-26T13:02:51.497Z,24.80
2022-07-26T13:05:18.078Z,24.80
2022-07-26T13:07:44.699Z,24.80
2022-07-26T13:12:57.731Z,24.80
2022-07-26T13:15:24.262Z,24.80
2022-07-26T13:18:03.152Z,24.80
2022-07-26T13:20:29.687Z,24.80
2022-07-26T13:22:56.200Z,24.80
2022-07-26T13:25:23.074Z,24.80
2022-07-26T13:27:51.448Z,24.80
2022-07-26T13:30:17.965Z,24.80
2022-07-26T13:32:44.477Z,24.80
2022-07-26T13:35:10.990Z,24.80
2022-07-26T13:37:37.511Z,24.80
2022-07-26T13:40:04.025Z,24.80
2022-07-26T13:42:34.962Z,24.80
2022-07-26T13:45:01.498Z,24.80
2022-07-26T13:47:28.036Z,24.80
2022-07-26T13:49:54.568Z,24.80
2022-07-26T13:52:21.087Z,24.80
2022-07-26T13:54:47.603Z,24.80
2022-07-26T13:57:14.124Z,24.80
2022-07-26T13:59:40.632Z,24.80
2022-07-26T14:02:07.238Z,24.80
2022-07-26T14:04:33.888Z,24.80
2022-07-26T14:07:00.411Z,24.80
2022-07-26T14:09:26.916Z,24.80
2022-07-26T14:11:53.581Z,24.80
2022-07-26T14:14:20.116Z,24.80
2022-07-26T14:16:49.426Z,24.80
2022-07-26T14:19:16.192Z,24.80
2022-07-26T14:21:51.565Z,24.80
2022-07-26T14:24:25.557Z,24.90
2022-07-26T14:26:55.449Z,24.80
2022-07-26T14:29:29.120Z,24.80
2022-07-26T14:31:55.728Z,24.80
2022-07-26T14:34:22.339Z,24.80
2022-07-26T14:36:48.866Z,24.80
2022-07-26T14:39:15.369Z,24.80
2022-07-26T14:41:41.872Z,24.80
2022-07-26T14:44:08.761Z,24.80
2022-07-26T14:46:35.537Z,24.80
2022-07-26T14:49:02.099Z,24.80
2022-07-26T14:51:28.660Z,24.80
2022-07-26T14:53:55.188Z,24.90
2022-07-26T14:56:21.716Z,24.80
2022-07-26T14:58:48.254Z,24.80
2022-07-26T15:01:14.852Z,24.80
2022-07-26T15:03:41.439Z,24.80
2022-07-26T15:06:07.963Z,24.80
2022-07-26T15:08:34.484Z,24.80
2022-07-26T15:11:01.009Z,24.80
2022-07-26T15:13:27.526Z,24.80
2022-07-26T15:15:59.148Z,24.80
2022-07-26T15:18:25.691Z,24.90
2022-07-26T15:20:52.207Z,24.80
2022-07-26T15:23:18.765Z,24.80
2022-07-26T15:25:45.301Z,24.80
2022-07-26T15:28:11.827Z,24.80
2022-07-26T15:30:38.336Z,24.80
2022-07-26T15:33:04.890Z,24.80
2022-07-26T15:35:31.408Z,24.80
2022-07-26T15:37:57.935Z,24.80
2022-07-26T15:40:24.465Z,24.80
2022-07-26T15:42:51.018Z,24.80
2022-07-26T15:45:17.539Z,24.80
2022-07-26T15:47:54.889Z,24.80
2022-07-26T15:50:22.730Z,24.80
2022-07-26T15:52:49.275Z,24.80
2022-07-26T15:55:15.792Z,24.80
2022-07-26T15:57:42.312Z,24.80
2022-07-26T16:00:11.374Z,24.80
2022-07-26T16:02:38.551Z,24.90
2022-07-26T16:05:05.145Z,24.80
2022-07-26T16:07:35.096Z,24.90
2022-07-26T16:10:05.086Z,24.80
2022-07-26T16:12:31.618Z,24.80
2022-07-26T16:14:58.137Z,24.80
2022-07-26T16:17:24.673Z,24.80
2022-07-26T16:19:51.218Z,24.80
2022-07-26T16:22:17.847Z,24.80
2022-07-26T16:24:44.380Z,24.80
2022-07-26T16:27:10.907Z,24.80
2022-07-26T16:29:37.441Z,24.80
2022-07-26T16:32:04.006Z,24.80
2022-07-26T16:37:20.991Z,24.80
2022-07-26T16:39:47.520Z,24.80
2022-07-26T16:42:14.043Z,24.80
2022-07-26T16:44:40.565Z,24.80
2022-07-26T16:47:07.228Z,24.80
2022-07-26T16:49:33.895Z,24.80
2022-07-26T16:52:00.498Z,24.80
2022-07-26T16:54:27.022Z,24.80
2022-07-26T16:56:53.554Z,24.80
2022-07-26T16:59:20.095Z,24.80
2022-07-26T17:01:46.693Z,24.80
2022-07-26T17:04:13.268Z,24.80
2022-07-26T17:06:39.788Z,24.80
2022-07-26T17:09:06.329Z,24.80
2022-07-26T17:11:32.967Z,24.80
2022-07-26T17:13:59.584Z,24.80
2022-07-26T17:16:26.137Z,24.80
2022-07-26T17:18:52.680Z,24.80
2022-07-26T17:21:19.206Z,24.80
2022-07-26T17:23:45.730Z,24.80
2022-07-26T17:26:12.260Z,24.80
2022-07-26T17:28:38.778Z,24.70
2022-07-26T17:31:05.317Z,24.70
2022-07-26T17:33:31.988Z,24.80
2022-07-26T17:36:02.130Z,24.70
2022-07-26T17:38:29.968Z,24.70
2022-07-26T17:40:56.797Z,24.80
2022-07-26T17:43:23.305Z,24.70
2022-07-26T17:45:50.517Z,24.80
2022-07-26T17:48:17.056Z,24.80
2022-07-26T17:50:43.578Z,24.70
2022-07-26T17:53:10.093Z,24.70
2022-07-26T17:55:36.630Z,24.70
2022-07-26T17:58:03.151Z,24.80
2022-07-26T18:00:29.742Z,24.70
2022-07-26T18:02:56.263Z,24.70
2022-07-26T18:05:23.682Z,24.70
2022-07-26T18:07:52.719Z,24.70
2022-07-26T18:10:19.270Z,24.70
2022-07-26T18:12:45.843Z,24.80
2022-07-26T18:15:12.412Z,24.80
2022-07-26T18:17:38.938Z,24.70
2022-07-26T18:20:05.484Z,24.80
2022-07-26T18:22:32.007Z,24.70
2022-07-26T18:24:58.542Z,24.70
2022-07-26T18:27:25.065Z,24.70
2022-07-26T18:29:54.194Z,24.70
2022-07-26T18:32:20.728Z,24.70
2022-07-26T18:34:51.605Z,24.70
2022-07-26T18:37:19.055Z,24.70
2022-07-26T18:39:45.574Z,24.70
2022-07-26T18:42:12.109Z,24.70
2022-07-26T18:44:38.619Z,24.70
2022-07-26T18:47:05.150Z,24.70
2022-07-26T18:49:31.780Z,24.70
2022-07-26T18:52:01.707Z,24.70
2022-07-26T18:54:32.060Z,24.70
2022-07-26T18:56:58.591Z,24.70
2022-07-26T18:59:25.102Z,24.70
2022-07-26T19:01:51.701Z,24.70
2022-07-26T19:04:18.272Z,24.70
2022-07-26T19:06:48.060Z,24.70
2022-07-26T19:09:16.300Z,24.70
2022-07-26T19:11:42.842Z,24.70
2022-07-26T19:14:09.356Z,24.70
2022-07-26T19:16:35.880Z,24.70
2022-07-26T19:19:02.402Z,24.70
2022-07-26T19:21:28.966Z,24.70
2022-07-26T19:23:55.483Z,24.70
2022-07-26T19:26:22.005Z,24.60
2022-07-26T19:28:48.539Z,24.70
2022-07-26T19:31:17.344Z,24.70
2022-07-26T19:33:43.899Z,24.60
2022-07-26T19:36:10.428Z,24.70
2022-07-26T19:38:36.950Z,24.70
2022-07-26T19:41:03.489Z,24.60
2022-07-26T19:43:30.007Z,24.60
2022-07-26T19:45:56.567Z,24.60
2022-07-26T19:48:23.108Z,24.70
2022-07-26T19:50:49.628Z,24.60
2022-07-26T19:53:16.142Z,24.70
2022-07-26T19:55:42.674Z,24.60
2022-07-26T19:58:09.185Z,24.60
2022-07-26T20:00:35.772Z,24.60
2022-07-26T20:03:02.351Z,24.60
2022-07-26T20:05:28.949Z,24.60
2022-07-26T20:07:55.482Z,24.60
2022-07-26T20:10:22.158Z,24.60
2022-07-26T20:12:48.687Z,24.60
2022-07-26T20:15:15.210Z,24.60
2022-07-26T20:17:41.740Z,24.60
2022-07-26T20:20:08.270Z,24.60
2022-07-26T20:22:34.790Z,24.60
2022-07-26T20:25:01.328Z,24.60
2022-07-26T20:27:27.873Z,24.60
2022-07-26T20:30:00.456Z,24.60
2022-07-26T20:32:27.598Z,24.60
2022-07-26T20:34:54.133Z,24.60
2022-07-26T20:37:20.676Z,24.60
2022-07-26T20:39:47.197Z,24.60
2022-07-26T20:42:14.900Z,24.60
2022-07-26T20:44:53.438Z,24.60
2022-07-26T20:47:20.893Z,24.60
2022-07-26T20:49:47.403Z,24.60
2022-07-26T20:52:14.354Z,24.60
2022-07-26T20:54:40.866Z,24.50
2022-07-26T20:57:07.389Z,24.50
2022-07-26T20:59:33.906Z,24.60
2022-07-26T21:02:00.482Z,24.50
2022-07-26T21:04:27.054Z,24.50
2022-07-26T21:06:53.611Z,24.50
2022-07-26T21:09:20.127Z,24.50
2022-07-26T21:11:46.668Z,24.50
2022-07-26T21:14:13.171Z,24.50
2022-07-26T21:16:39.734Z,24.50
2022-07-26T21:19:06.322Z,24.50
2022-07-26T21:21:32.834Z,24.50
2022-07-26T21:23:59.424Z,24.50
2022-07-26T21:26:25.984Z,24.50
2022-07-26T21:28:52.523Z,24.50
2022-07-26T21:31:19.058Z,24.50
2022-07-26T21:33:45.600Z,24.50
2022-07-26T21:36:12.118Z,24.50
2022-07-26T21:38:38.640Z,24.40
2022-07-26T21:41:05.152Z,24.40
2022-07-26T21:43:31.696Z,24.40
2022-07-26T21:45:58.291Z,24.50
2022-07-26T21:48:24.926Z,24.40
2022-07-26T21:50:51.449Z,24.50
2022-07-26T21:53:17.988Z,24.40
2022-07-26T21:55:44.518Z,24.40
2022-07-26T21:58:11.035Z,24.40
2022-07-26T22:00:37.557Z,24.40
2022-07-26T22:03:04.092Z,24.40
2022-07-26T22:05:30.617Z,24.40
2022-07-26T22:07:57.167Z,24.40
2022-07-26T22:10:23.690Z,24.30
2022-07-26T22:12:50.238Z,24.40
2022-07-26T22:15:17.338Z,24.30
2022-07-26T22:17:43.858Z,24.40
2022-07-26T22:20:10.397Z,24.30
2022-07-26T22:22:37.841Z,24.30
2022-07-26T22:25:04.369Z,24.30
2022-07-26T22:27:30.897Z,24.30
2022-07-26T22:29:57.434Z,24.30
2022-07-26T22:32:23.965Z,24.30
2022-07-26T22:34:50.494Z,24.20
2022-07-26T22:37:17.021Z,24.20
2022-07-26T22:39:43.568Z,24.20
2022-07-26T22:42:17.212Z,24.20
2022-07-26T22:44:43.764Z,24.10
2022-07-26T22:47:10.290Z,24.20
2022-07-26T22:49:36.848Z,24.20
2022-07-26T22:52:03.391Z,24.20
2022-07-26T22:54:29.915Z,24.20
2022-07-26T22:56:56.435Z,24.20
2022-07-26T22:59:22.974Z,24.20
2022-07-26T23:01:49.506Z,24.10
2022-07-26T23:04:16.096Z,24.10
2022-07-26T23:06:42.707Z,24.20
2022-07-26T23:09:11.421Z,24.10
2022-07-26T23:11:38.391Z,24.10
2022-07-26T23:14:04.918Z,24.20
2022-07-26T23:16:31.494Z,24.20
2022-07-26T23:18:58.132Z,24.10
2022-07-26T23:21:24.651Z,24.10
2022-07-26T23:23:51.182Z,24.20
2022-07-26T23:26:17.702Z,24.10
2022-07-26T23:28:44.234Z,24.10
2022-07-26T23:31:10.951Z,24.10
2022-07-26T23:33:51.694Z,24.20
2022-07-26T23:36:20.642Z,24.10
2022-07-26T23:38:47.176Z,24.20
2022-07-26T23:41:13.674Z,24.10
2022-07-26T23:43:40.208Z,24.10
2022-07-26T23:46:06.724Z,24.00
2022-07-26T23:48:33.278Z,24.10
2022-07-26T23:50:59.805Z,24.10
2022-07-26T23:53:26.603Z,24.10
2022-07-26T23:55:53.678Z,24.10
2022-07-26T23:58:20.204Z,24.10
